createdAt,value
2022-10-25T00:00:54.915Z,28.55
2022-10-25T00:04:00.938Z,26.65
2022-10-25T00:07:08.057Z,22.60
2022-10-25T00:10:14.969Z,21.33
2022-10-25T00:13:21.575Z,23.60
2022-10-25T00:16:32.250Z,26.90
2022-10-25T00:19:38.202Z,25.02
2022-10-25T00:22:47.426Z,25.43
2022-10-25T00:25:53.725Z,21.02
2022-10-25T00:28:59.427Z,18.65
2022-10-25T00:32:05.801Z,17.65
2022-10-25T00:35:11.827Z,24.00
2022-10-25T00:38:17.151Z,27.87
2022-10-25T00:41:23.769Z,27.98
2022-10-25T00:44:57.418Z,34.55
2022-10-25T00:48:17.082Z,38.88
2022-10-25T00:51:22.995Z,37.15
2022-10-25T00:54:31.450Z,42.98
2022-10-25T00:57:57.502Z,41.83
2022-10-25T01:01:04.158Z,47.10
2022-10-25T01:04:04.309Z,44.70
2022-10-25T01:07:10.119Z,46.75
2022-10-25T01:10:15.785Z,42.78
2022-10-25T01:13:22.408Z,40.73
2022-10-25T01:16:42.154Z,37.15
2022-10-25T01:19:58.715Z,36.15
2022-10-25T01:23:50.369Z,38.65
2022-10-25T01:27:14.130Z,38.25
2022-10-25T01:30:40.415Z,40.80
2022-10-25T01:34:08.251Z,41.20
2022-10-25T01:37:47.937Z,39.67
2022-10-25T01:41:14.616Z,38.15
2022-10-25T01:44:33.278Z,33.85
2022-10-25T01:47:57.980Z,30.77
2022-10-25T01:51:05.355Z,30.00
2022-10-25T01:54:11.315Z,23.20
2022-10-25T01:57:50.440Z,23.70
2022-10-25T02:01:13.889Z,18.32
2022-10-25T02:04:20.782Z,20.27
2022-10-25T02:07:50.514Z,19.25
2022-10-25T02:11:09.324Z,19.52
2022-10-25T02:14:46.962Z,19.85
2022-10-25T02:17:54.579Z,18.32
2022-10-25T02:21:00.991Z,18.73
2022-10-25T02:24:07.596Z,16.77
2022-10-25T02:27:13.504Z,16.95
2022-10-25T02:30:20.347Z,19.00
2022-10-25T02:33:26.713Z,17.65
2022-10-25T02:36:39.015Z,17.90
2022-10-25T02:39:44.897Z,18.20
2022-10-25T02:42:51.218Z,17.77
2022-10-25T02:45:57.089Z,17.55
2022-10-25T02:49:03.311Z,15.95
2022-10-25T02:52:09.921Z,19.35
2022-10-25T02:55:16.448Z,20.25
2022-10-25T02:58:22.079Z,20.12
2022-10-25T03:01:29.370Z,20.30
2022-10-25T03:04:35.302Z,21.25
2022-10-25T03:07:40.568Z,20.10
2022-10-25T03:10:47.204Z,20.57
2022-10-25T03:13:46.980Z,17.70
2022-10-25T03:16:54.095Z,17.80
2022-10-25T03:20:01.257Z,19.23
2022-10-25T03:23:08.240Z,19.00
2022-10-25T03:26:14.843Z,19.48
2022-10-25T03:29:20.871Z,16.55
2022-10-25T03:32:26.755Z,16.87
2022-10-25T03:35:31.981Z,14.65
2022-10-25T03:38:37.627Z,13.45
2022-10-25T03:41:44.002Z,14.28
2022-10-25T03:44:48.925Z,13.53
2022-10-25T03:47:56.230Z,13.38
2022-10-25T03:51:01.812Z,13.78
2022-10-25T03:54:08.352Z,12.63
2022-10-25T03:57:15.350Z,12.80
2022-10-25T04:00:21.608Z,13.30
2022-10-25T04:03:26.478Z,12.35
2022-10-25T04:06:31.871Z,14.03
2022-10-25T04:09:37.481Z,13.05
2022-10-25T04:12:43.938Z,13.83
2022-10-25T04:15:48.874Z,14.75
2022-10-25T04:18:54.993Z,15.43
2022-10-25T04:22:01.454Z,14.38
2022-10-25T04:25:09.149Z,13.98
2022-10-25T04:28:15.268Z,16.10
2022-10-25T04:31:21.413Z,16.35
2022-10-25T04:34:26.838Z,14.85
2022-10-25T04:37:33.749Z,16.48
2022-10-25T04:40:39.562Z,17.60
2022-10-25T04:43:45.479Z,18.10
2022-10-25T04:46:51.018Z,18.12
2022-10-25T04:49:57.893Z,17.25
2022-10-25T04:53:04.992Z,17.77
2022-10-25T04:56:16.783Z,18.65
2022-10-25T04:59:24.165Z,17.92
2022-10-25T05:02:29.732Z,20.32
2022-10-25T05:05:34.898Z,20.52
2022-10-25T05:08:41.300Z,20.85
2022-10-25T05:11:46.922Z,21.27
2022-10-25T05:14:53.878Z,20.92
2022-10-25T05:18:00.755Z,20.75
2022-10-25T05:21:14.371Z,20.90
2022-10-25T05:24:21.072Z,21.87
2022-10-25T05:27:28.588Z,21.48
2022-10-25T05:30:33.958Z,19.05
2022-10-25T05:33:39.886Z,21.52
2022-10-25T05:36:45.114Z,22.50
2022-10-25T05:39:50.620Z,24.98
2022-10-25T05:42:56.213Z,23.52
2022-10-25T05:46:02.033Z,24.43
2022-10-25T05:49:07.911Z,22.87
2022-10-25T05:52:14.586Z,22.22
2022-10-25T05:55:15.354Z,20.40
2022-10-25T05:58:24.516Z,21.33
2022-10-25T06:01:24.581Z,22.60
2022-10-25T06:04:30.796Z,21.52
2022-10-25T06:07:36.544Z,21.37
2022-10-25T06:10:42.754Z,20.45
2022-10-25T06:13:48.115Z,19.67
2022-10-25T06:16:54.735Z,17.98
2022-10-25T06:20:01.208Z,19.67
2022-10-25T06:23:10.533Z,16.97
2022-10-25T06:26:19.920Z,17.35
2022-10-25T06:29:25.559Z,19.05
2022-10-25T06:32:32.332Z,18.35
2022-10-25T06:35:37.423Z,16.30
2022-10-25T06:38:42.375Z,18.52
2022-10-25T06:41:49.757Z,16.90
2022-10-25T06:44:54.877Z,16.32
2022-10-25T06:48:01.430Z,15.70
2022-10-25T06:51:18.494Z,15.30
2022-10-25T06:54:25.202Z,16.23
2022-10-25T06:57:30.704Z,15.53
2022-10-25T07:00:36.419Z,15.68
2022-10-25T07:03:42.462Z,17.32
2022-10-25T07:06:50.014Z,15.13
2022-10-25T07:09:57.512Z,14.70
2022-10-25T07:13:04.568Z,14.78
2022-10-25T07:16:11.038Z,14.60
2022-10-25T07:19:17.784Z,14.33
2022-10-25T07:22:24.500Z,15.98
2022-10-25T07:25:29.964Z,13.95
2022-10-25T07:28:28.876Z,14.18
2022-10-25T07:31:38.298Z,13.48
2022-10-25T07:34:46.293Z,13.75
2022-10-25T07:37:54.896Z,13.32
2022-10-25T07:41:00.813Z,12.73
2022-10-25T07:44:09.560Z,14.00
2022-10-25T07:47:16.707Z,12.33
2022-10-25T07:50:23.014Z,12.68
2022-10-25T07:53:29.116Z,12.75
2022-10-25T07:56:34.346Z,12.60
2022-10-25T07:59:41.393Z,12.28
2022-10-25T08:02:47.207Z,10.75
2022-10-25T08:05:54.301Z,11.30
2022-10-25T08:09:09.658Z,11.48
2022-10-25T08:12:08.371Z,11.53
2022-10-25T08:15:13.778Z,12.03
2022-10-25T08:18:20.068Z,11.57
2022-10-25T08:21:25.693Z,10.45
2022-10-25T08:24:32.986Z,9.75
2022-10-25T08:27:38.289Z,9.95
2022-10-25T08:30:43.541Z,9.75
2022-10-25T08:33:49.177Z,10.25
2022-10-25T08:36:54.530Z,8.03
2022-10-25T08:39:59.731Z,9.38
2022-10-25T08:43:23.752Z,9.60
2022-10-25T08:46:44.199Z,9.95
2022-10-25T08:53:13.419Z,7.95
2022-10-25T08:56:18.435Z,8.20
2022-10-25T08:59:25.097Z,7.15
2022-10-25T09:02:34.690Z,8.43
2022-10-25T09:06:02.671Z,7.62
2022-10-25T09:09:32.452Z,7.60
2022-10-25T09:12:57.149Z,7.03
2022-10-25T09:16:26.740Z,7.10
2022-10-25T09:19:51.055Z,6.55
2022-10-25T09:23:03.602Z,5.60
2022-10-25T09:26:15.634Z,4.22
2022-10-25T09:29:46.357Z,4.33
2022-10-25T09:33:00.293Z,5.00
2022-10-25T09:36:12.335Z,4.90
2022-10-25T09:39:19.897Z,4.03
2022-10-25T09:42:36.535Z,3.70
2022-10-25T09:46:05.860Z,3.50
2022-10-25T09:49:27.097Z,4.00
2022-10-25T09:53:02.119Z,3.58
2022-10-25T09:56:06.932Z,3.90
2022-10-25T09:59:00.052Z,4.50
2022-10-25T10:02:05.202Z,4.08
2022-10-25T10:05:11.284Z,3.72
2022-10-25T10:08:16.862Z,4.30
2022-10-25T10:11:28.427Z,4.40
2022-10-25T10:14:54.561Z,4.62
2022-10-25T10:18:00.867Z,5.00
2022-10-25T10:21:18.690Z,4.12
2022-10-25T10:24:36.605Z,3.58
2022-10-25T10:27:41.547Z,3.40
2022-10-25T10:30:47.494Z,3.77
2022-10-25T10:33:54.145Z,4.00
2022-10-25T10:36:59.288Z,4.00
2022-10-25T10:40:25.843Z,3.50
2022-10-25T10:43:45.430Z,4.17
2022-10-25T10:46:44.202Z,4.45
2022-10-25T10:49:53.490Z,4.60
2022-10-25T10:53:00.154Z,4.55
2022-10-25T10:56:11.114Z,4.67
2022-10-25T10:59:16.510Z,4.75
2022-10-25T11:02:35.374Z,4.55
2022-10-25T11:05:51.685Z,4.50
2022-10-25T11:09:00.229Z,3.67
2022-10-25T11:12:21.878Z,4.28
2022-10-25T11:15:28.967Z,4.60
2022-10-25T11:18:51.793Z,4.62
2022-10-25T11:22:17.450Z,3.95
2022-10-25T11:25:32.708Z,3.72
2022-10-25T11:28:49.698Z,3.87
2022-10-25T11:32:27.501Z,4.08
2022-10-25T11:35:53.690Z,3.87
2022-10-25T11:39:22.757Z,4.40
2022-10-25T11:43:22.537Z,3.80
2022-10-25T11:46:47.444Z,4.63
2022-10-25T11:50:10.074Z,4.20
2022-10-25T11:53:53.488Z,4.47
2022-10-25T11:57:22.259Z,5.03
2022-10-25T12:00:39.156Z,4.22
2022-10-25T12:04:08.073Z,5.25
2022-10-25T12:07:25.021Z,4.65
2022-10-25T12:10:50.496Z,5.70
2022-10-25T12:14:04.136Z,6.55
2022-10-25T12:17:11.803Z,6.50
2022-10-25T12:20:19.355Z,5.72
2022-10-25T12:23:27.243Z,5.90
2022-10-25T12:26:47.053Z,5.00
2022-10-25T12:30:04.210Z,5.55
2022-10-25T12:33:37.265Z,5.95
2022-10-25T12:37:02.552Z,4.55
2022-10-25T12:40:08.529Z,4.92
2022-10-25T12:43:32.810Z,4.87
2022-10-25T12:46:56.838Z,5.40
2022-10-25T12:50:35.600Z,5.45
2022-10-25T12:54:14.496Z,5.55
2022-10-25T12:57:32.110Z,4.42
2022-10-25T13:00:31.268Z,4.87
2022-10-25T13:03:46.895Z,4.37
2022-10-25T13:06:53.039Z,5.62
2022-10-25T13:09:58.655Z,4.62
2022-10-25T13:13:24.687Z,5.03
2022-10-25T13:16:42.207Z,4.40
2022-10-25T13:20:00.033Z,5.08
2022-10-25T13:22:53.506Z,4.50
2022-10-25T13:26:06.471Z,4.40
2022-10-25T13:29:14.760Z,4.58
2022-10-25T13:32:21.136Z,5.15
2022-10-25T13:35:41.476Z,5.35
2022-10-25T13:38:51.050Z,4.90
2022-10-25T13:45:22.037Z,3.72
2022-10-25T13:48:48.283Z,4.25
2022-10-25T13:51:54.310Z,4.67
2022-10-25T13:55:06.516Z,4.85
2022-10-25T13:58:13.377Z,4.42
2022-10-25T14:01:37.684Z,4.58
2022-10-25T14:04:44.599Z,4.90
2022-10-25T14:08:01.624Z,5.05
2022-10-25T14:11:06.965Z,5.65
2022-10-25T14:14:45.833Z,5.08
2022-10-25T14:17:57.468Z,6.60
2022-10-25T14:21:05.800Z,5.40
2022-10-25T14:24:11.425Z,6.37
2022-10-25T14:27:17.027Z,5.70
2022-10-25T14:30:43.904Z,6.92
2022-10-25T14:34:06.369Z,7.65
2022-10-25T14:37:12.406Z,6.70
2022-10-25T14:40:17.126Z,7.00
2022-10-25T14:43:42.808Z,6.05
2022-10-25T14:46:48.651Z,5.92
2022-10-25T14:49:54.414Z,6.45
2022-10-25T14:53:04.680Z,6.92
2022-10-25T14:56:18.849Z,6.30
2022-10-25T14:59:47.799Z,6.78
2022-10-25T15:02:53.961Z,7.10
2022-10-25T15:06:01.728Z,7.60
2022-10-25T15:09:41.685Z,6.72
2022-10-25T15:12:32.350Z,7.20
2022-10-25T15:15:57.681Z,6.87
2022-10-25T15:19:24.593Z,7.35
2022-10-25T15:22:31.087Z,6.67
2022-10-25T15:25:42.776Z,7.70
2022-10-25T15:28:56.892Z,6.35
2022-10-25T15:32:02.539Z,6.85
2022-10-25T15:35:14.466Z,6.60
2022-10-25T15:38:21.021Z,6.17
2022-10-25T15:41:27.444Z,7.20
2022-10-25T15:44:33.941Z,6.47
2022-10-25T15:47:47.483Z,6.65
2022-10-25T15:50:57.011Z,6.20
2022-10-25T15:54:02.559Z,5.67
2022-10-25T15:57:08.072Z,6.83
2022-10-25T16:00:13.192Z,6.80
2022-10-25T16:03:19.311Z,6.17
2022-10-25T16:06:27.780Z,5.95
2022-10-25T16:09:33.051Z,6.53
2022-10-25T16:12:43.195Z,6.83
2022-10-25T16:15:48.607Z,6.75
2022-10-25T16:18:54.861Z,6.45
2022-10-25T16:22:00.902Z,6.62
2022-10-25T16:25:06.365Z,6.75
2022-10-25T16:28:11.638Z,7.12
2022-10-25T16:31:17.190Z,7.58
2022-10-25T16:34:26.604Z,7.10
2022-10-25T16:37:34.900Z,7.20
2022-10-25T16:40:39.708Z,7.97
2022-10-25T16:43:48.441Z,6.83
2022-10-25T16:46:52.505Z,6.65
2022-10-25T16:49:58.838Z,6.65
2022-10-25T16:53:08.067Z,6.75
2022-10-25T16:56:15.510Z,6.92
2022-10-25T16:59:20.270Z,6.65
2022-10-25T17:02:32.292Z,6.45
2022-10-25T17:05:40.646Z,5.65
2022-10-25T17:08:45.849Z,4.78
2022-10-25T17:11:51.769Z,5.70
2022-10-25T17:14:57.524Z,5.75
2022-10-25T17:18:04.564Z,5.90
2022-10-25T17:21:12.737Z,5.72
2022-10-25T17:24:19.371Z,5.85
2022-10-25T17:27:25.425Z,5.50
2022-10-25T17:30:33.160Z,6.15
2022-10-25T17:33:39.044Z,6.53
2022-10-25T17:36:44.859Z,5.33
2022-10-25T17:39:50.776Z,5.90
2022-10-25T17:42:56.555Z,5.83
2022-10-25T17:46:01.857Z,6.20
2022-10-25T17:49:15.057Z,5.42
2022-10-25T17:52:20.049Z,5.35
2022-10-25T17:55:29.599Z,5.55
2022-10-25T17:58:33.712Z,5.78
2022-10-25T18:01:41.445Z,4.90
2022-10-25T18:05:08.418Z,5.47
2022-10-25T18:07:58.008Z,5.80
2022-10-25T18:11:04.419Z,5.67
2022-10-25T18:14:13.146Z,5.35
2022-10-25T18:17:19.729Z,5.42
2022-10-25T18:20:28.949Z,5.47
2022-10-25T18:23:38.098Z,5.03
2022-10-25T18:26:44.530Z,6.20
2022-10-25T18:29:50.243Z,6.17
2022-10-25T18:32:56.697Z,6.15
2022-10-25T18:36:01.850Z,6.62
2022-10-25T18:39:07.015Z,8.78
2022-10-25T18:42:12.918Z,11.28
2022-10-25T18:45:18.795Z,9.53
2022-10-25T18:48:26.481Z,8.48
2022-10-25T18:51:31.984Z,7.40
2022-10-25T18:54:38.652Z,6.20
2022-10-25T18:57:47.651Z,5.80
2022-10-25T19:00:53.319Z,5.45
2022-10-25T19:03:58.668Z,6.05
2022-10-25T19:07:07.269Z,5.85
2022-10-25T19:10:15.439Z,6.20
2022-10-25T19:13:24.032Z,5.87
2022-10-25T19:16:31.867Z,5.72
2022-10-25T19:19:39.292Z,6.47
2022-10-25T19:22:46.469Z,5.70
2022-10-25T19:25:52.863Z,5.50
2022-10-25T19:28:59.270Z,5.58
2022-10-25T19:32:05.610Z,6.00
2022-10-25T19:35:12.270Z,6.53
2022-10-25T19:38:17.285Z,6.37
2022-10-25T19:41:24.463Z,6.00
2022-10-25T19:44:30.753Z,6.33
2022-10-25T19:47:35.928Z,6.42
2022-10-25T19:50:41.664Z,6.50
2022-10-25T19:53:46.364Z,7.70
2022-10-25T19:56:53.173Z,7.45
2022-10-25T19:59:58.694Z,7.20
2022-10-25T20:03:06.431Z,6.53
2022-10-25T20:06:16.616Z,7.22
2022-10-25T20:12:27.422Z,7.03
2022-10-25T20:15:33.962Z,8.20
2022-10-25T20:18:47.516Z,6.70
2022-10-25T20:21:53.747Z,7.35
2022-10-25T20:24:59.964Z,7.33
2022-10-25T20:28:07.463Z,8.03
2022-10-25T20:31:18.460Z,8.28
2022-10-25T20:34:17.586Z,7.22
2022-10-25T20:37:22.985Z,8.05
2022-10-25T20:40:30.775Z,7.75
2022-10-25T20:43:36.298Z,7.30
2022-10-25T20:46:41.990Z,6.80
2022-10-25T20:49:47.612Z,6.75
2022-10-25T20:53:10.616Z,6.37
2022-10-25T20:56:01.349Z,6.90
2022-10-25T20:59:07.328Z,6.40
2022-10-25T21:02:13.315Z,6.40
2022-10-25T21:05:14.721Z,6.85
2022-10-25T21:08:07.340Z,6.42
2022-10-25T21:11:15.720Z,6.55
2022-10-25T21:14:21.651Z,8.30
2022-10-25T21:17:28.493Z,6.97
2022-10-25T21:20:34.257Z,6.97
2022-10-25T21:23:41.252Z,6.70
2022-10-25T21:26:47.080Z,7.30
2022-10-25T21:29:52.784Z,7.00
2022-10-25T21:32:59.720Z,7.08
2022-10-25T21:36:05.778Z,6.75
2022-10-25T21:39:11.978Z,7.10
2022-10-25T21:42:17.871Z,7.42
2022-10-25T21:45:25.112Z,6.67
2022-10-25T21:48:30.264Z,6.90
2022-10-25T21:51:36.580Z,6.60
2022-10-25T21:54:42.418Z,6.58
2022-10-25T21:57:50.596Z,6.50
2022-10-25T22:00:58.559Z,6.62
2022-10-25T22:04:04.735Z,7.20
2022-10-25T22:07:09.558Z,6.50
2022-10-25T22:10:14.797Z,6.20
2022-10-25T22:13:21.505Z,6.08
2022-10-25T22:16:30.928Z,7.92
2022-10-25T22:19:36.808Z,6.40
2022-10-25T22:22:43.188Z,7.35
2022-10-25T22:25:49.098Z,6.65
2022-10-25T22:28:55.668Z,6.92
2022-10-25T22:32:00.572Z,7.37
2022-10-25T22:35:06.598Z,6.60
2022-10-25T22:38:13.932Z,6.30
2022-10-25T22:41:23.608Z,7.15
2022-10-25T22:44:29.609Z,6.75
2022-10-25T22:47:35.438Z,6.83
2022-10-25T22:50:34.618Z,6.12
2022-10-25T22:53:40.615Z,6.30
2022-10-25T22:56:46.632Z,6.92
2022-10-25T22:59:52.704Z,6.33
2022-10-25T23:02:59.645Z,6.40
2022-10-25T23:06:13.468Z,7.08
2022-10-25T23:09:22.939Z,5.90
2022-10-25T23:12:29.113Z,6.60
2022-10-25T23:15:34.447Z,6.80
2022-10-25T23:18:39.880Z,6.05
2022-10-25T23:21:44.980Z,5.47
2022-10-25T23:24:51.484Z,6.28
2022-10-25T23:27:57.130Z,5.70
2022-10-25T23:31:03.537Z,5.42
2022-10-25T23:34:04.940Z,6.08
2022-10-25T23:37:11.467Z,5.90
2022-10-25T23:40:17.045Z,5.95
2022-10-25T23:43:23.236Z,5.40
2022-10-25T23:46:28.608Z,5.42
2022-10-25T23:49:35.647Z,4.75
2022-10-25T23:52:41.126Z,5.12
2022-10-25T23:55:46.924Z,5.03
2022-10-25T23:58:52.460Z,4.62
